sensor_id;sensor_type;location;lat;lon;timestamp;pressure;altitude;pressure_sealevel;temperature;humidity
6096;BME280;25081;42.698;23.298;2022-12-01T00:01:19;95471.27;;;3.69;90.77
6096;BME280;25081;42.698;23.298;2022-12-01T00:03:30;95482.61;;;3.74;90.42
6096;BME280;25081;42.698;23.298;2022-12-01T00:05:41;95479.48;;;3.74;90.12
6096;BME280;25081;42.698;23.298;2022-12-01T00:07:51;95481.30;;;3.78;90.03
6096;BME280;25081;42.698;23.298;2022-12-01T00:10:02;95486.07;;;3.74;89.90
6096;BME280;25081;42.698;23.298;2022-12-01T00:12:31;95491.34;;;3.74;89.56
6096;BME280;25081;42.698;23.298;2022-12-01T00:14:41;95478.31;;;3.81;89.25
6096;BME280;25081;42.698;23.298;2022-12-01T00:16:52;95484.41;;;3.82;89.30
6096;BME280;25081;42.698;23.298;2022-12-01T00:19:02;95490.03;;;3.74;88.92
6096;BME280;25081;42.698;23.298;2022-12-01T00:21:14;95485.57;;;3.75;88.90
6096;BME280;25081;42.698;23.298;2022-12-01T00:23:25;95477.34;;;3.78;88.56
6096;BME280;25081;42.698;23.298;2022-12-01T00:25:35;95476.02;;;3.78;88.40
6096;BME280;25081;42.698;23.298;2022-12-01T00:27:48;95476.34;;;3.75;88.31
6096;BME280;25081;42.698;23.298;2022-12-01T00:29:59;95486.42;;;3.71;88.47
6096;BME280;25081;42.698;23.298;2022-12-01T00:32:09;95485.58;;;3.79;88.25
6096;BME280;25081;42.698;23.298;2022-12-01T00:34:22;95487.54;;;3.81;88.06
6096;BME280;25081;42.698;23.298;2022-12-01T00:36:32;95491.64;;;3.84;87.99
6096;BME280;25081;42.698;23.298;2022-12-01T00:38:43;95498.61;;;3.77;87.97
6096;BME280;25081;42.698;23.298;2022-12-01T00:40:53;95480.63;;;3.76;88.13
6096;BME280;25081;42.698;23.298;2022-12-01T00:43:04;95482.94;;;3.79;88.14
6096;BME280;25081;42.698;23.298;2022-12-01T00:45:15;95487.09;;;3.69;88.51
6096;BME280;25081;42.698;23.298;2022-12-01T00:47:25;95490.05;;;3.70;88.69
6096;BME280;25081;42.698;23.298;2022-12-01T00:49:36;95483.96;;;3.70;88.94
6096;BME280;25081;42.698;23.298;2022-12-01T00:51:46;95485.95;;;3.68;88.96
6096;BME280;25081;42.698;23.298;2022-12-01T00:53:57;95488.41;;;3.65;89.14
6096;BME280;25081;42.698;23.298;2022-12-01T00:56:08;95484.33;;;3.59;89.45
6096;BME280;25081;42.698;23.298;2022-12-01T00:58:19;95504.74;;;3.57;89.84
6096;BME280;25081;42.698;23.298;2022-12-01T01:00:30;95485.32;;;3.54;90.13
6096;BME280;25081;42.698;23.298;2022-12-01T01:02:41;95485.33;;;3.58;90.12
6096;BME280;25081;42.698;23.298;2022-12-01T01:04:51;95484.78;;;3.66;90.02
6096;BME280;25081;42.698;23.298;2022-12-01T01:07:02;95484.30;;;3.63;90.06
6096;BME280;25081;42.698;23.298;2022-12-01T01:09:13;95480.00;;;3.66;90.12
6096;BME280;25081;42.698;23.298;2022-12-01T01:11:23;95479.18;;;3.65;90.00
6096;BME280;25081;42.698;23.298;2022-12-01T01:13:33;95481.17;;;3.63;90.42
6096;BME280;25081;42.698;23.298;2022-12-01T01:15:44;95474.91;;;3.68;90.38
6096;BME280;25081;42.698;23.298;2022-12-01T01:17:54;95472.56;;;3.73;90.35
6096;BME280;25081;42.698;23.298;2022-12-01T01:20:07;95477.38;;;3.70;90.39
6096;BME280;25081;42.698;23.298;2022-12-01T01:22:17;95470.63;;;3.67;90.24
6096;BME280;25081;42.698;23.298;2022-12-01T01:24:28;95471.48;;;3.60;90.80
6096;BME280;25081;42.698;23.298;2022-12-01T01:26:39;95464.22;;;3.62;90.85
6096;BME280;25081;42.698;23.298;2022-12-01T01:28:50;95464.69;;;3.65;90.68
6096;BME280;25081;42.698;23.298;2022-12-01T01:31:00;95458.41;;;3.66;90.51
6096;BME280;25081;42.698;23.298;2022-12-01T01:33:11;95466.00;;;3.69;90.41
6096;BME280;25081;42.698;23.298;2022-12-01T01:35:21;95459.73;;;3.70;90.38
6096;BME280;25081;42.698;23.298;2022-12-01T01:37:32;95449.33;;;3.73;89.83
6096;BME280;25081;42.698;23.298;2022-12-01T01:39:42;95444.70;;;3.75;89.62
6096;BME280;25081;42.698;23.298;2022-12-01T01:41:53;95446.34;;;3.76;89.53
6096;BME280;25081;42.698;23.298;2022-12-01T01:46:33;95444.27;;;3.67;89.83
6096;BME280;25081;42.698;23.298;2022-12-01T01:48:45;95445.55;;;3.71;89.98
6096;BME280;25081;42.698;23.298;2022-12-01T01:50:54;95440.58;;;3.81;89.89
6096;BME280;25081;42.698;23.298;2022-12-01T01:53:05;95436.13;;;3.81;89.66
6096;BME280;25081;42.698;23.298;2022-12-01T01:55:15;95436.80;;;3.79;89.83
6096;BME280;25081;42.698;23.298;2022-12-01T01:57:27;95434.27;;;3.86;89.64
6096;BME280;25081;42.698;23.298;2022-12-01T01:59:37;95435.95;;;3.83;89.50
6096;BME280;25081;42.698;23.298;2022-12-01T02:01:49;95440.25;;;3.76;89.72
6096;BME280;25081;42.698;23.298;2022-12-01T02:03:58;95441.75;;;3.78;89.83
6096;BME280;25081;42.698;23.298;2022-12-01T02:06:09;95436.65;;;3.72;90.08
6096;BME280;25081;42.698;23.298;2022-12-01T02:08:20;95436.91;;;3.86;90.16
6096;BME280;25081;42.698;23.298;2022-12-01T02:10:32;95428.85;;;3.83;89.62
6096;BME280;25081;42.698;23.298;2022-12-01T02:13:04;95430.98;;;3.84;89.29
6096;BME280;25081;42.698;23.298;2022-12-01T02:15:20;95432.48;;;3.82;89.48
6096;BME280;25081;42.698;23.298;2022-12-01T02:17:32;95424.08;;;3.83;88.98
6096;BME280;25081;42.698;23.298;2022-12-01T02:22:43;95433.55;;;3.69;88.67
6096;BME280;25081;42.698;23.298;2022-12-01T02:25:02;95427.92;;;3.72;88.78
6096;BME280;25081;42.698;23.298;2022-12-01T02:27:13;95429.56;;;3.77;88.62
6096;BME280;25081;42.698;23.298;2022-12-01T02:29:40;95428.09;;;3.70;88.55
6096;BME280;25081;42.698;23.298;2022-12-01T02:31:51;95424.53;;;3.59;89.00
6096;BME280;25081;42.698;23.298;2022-12-01T02:34:03;95423.03;;;3.57;89.60
6096;BME280;25081;42.698;23.298;2022-12-01T02:36:13;95418.27;;;3.60;89.98
6096;BME280;25081;42.698;23.298;2022-12-01T02:38:24;95425.03;;;3.59;89.75
6096;BME280;25081;42.698;23.298;2022-12-01T02:40:36;95418.94;;;3.58;89.73
6096;BME280;25081;42.698;23.298;2022-12-01T02:42:48;95415.83;;;3.51;90.04
6096;BME280;25081;42.698;23.298;2022-12-01T02:45:01;95416.80;;;3.54;90.54
6096;BME280;25081;42.698;23.298;2022-12-01T02:47:12;95423.70;;;3.59;90.67
6096;BME280;25081;42.698;23.298;2022-12-01T02:49:23;95419.08;;;3.61;90.67
6096;BME280;25081;42.698;23.298;2022-12-01T02:51:33;95426.38;;;3.51;90.82
6096;BME280;25081;42.698;23.298;2022-12-01T02:53:44;95425.11;;;3.38;91.55
6096;BME280;25081;42.698;23.298;2022-12-01T02:55:55;95425.58;;;3.42;92.08
6096;BME280;25081;42.698;23.298;2022-12-01T02:58:13;95427.06;;;3.40;91.87
6096;BME280;25081;42.698;23.298;2022-12-01T03:00:24;95427.77;;;3.30;92.08
6096;BME280;25081;42.698;23.298;2022-12-01T03:02:37;95433.50;;;3.34;92.08
6096;BME280;25081;42.698;23.298;2022-12-01T03:04:54;95437.13;;;3.33;92.21
6096;BME280;25081;42.698;23.298;2022-12-01T03:07:06;95435.67;;;3.30;92.30
6096;BME280;25081;42.698;23.298;2022-12-01T03:09:19;95441.06;;;3.37;92.51
6096;BME280;25081;42.698;23.298;2022-12-01T03:11:32;95437.11;;;3.37;92.53
6096;BME280;25081;42.698;23.298;2022-12-01T03:13:42;95429.53;;;3.42;92.46
6096;BME280;25081;42.698;23.298;2022-12-01T03:15:54;95434.16;;;3.40;92.25
6096;BME280;25081;42.698;23.298;2022-12-01T03:18:12;95427.73;;;3.38;91.89
6096;BME280;25081;42.698;23.298;2022-12-01T03:20:21;95429.55;;;3.34;92.01
6096;BME280;25081;42.698;23.298;2022-12-01T03:22:31;95425.60;;;3.38;91.95
6096;BME280;25081;42.698;23.298;2022-12-01T03:24:42;95419.48;;;3.37;92.04
6096;BME280;25081;42.698;23.298;2022-12-01T03:26:53;95419.48;;;3.37;91.96
6096;BME280;25081;42.698;23.298;2022-12-01T03:29:04;95425.75;;;3.40;91.87
6096;BME280;25081;42.698;23.298;2022-12-01T03:31:15;95420.80;;;3.41;92.16
6096;BME280;25081;42.698;23.298;2022-12-01T03:33:26;95419.66;;;3.36;92.05
6096;BME280;25081;42.698;23.298;2022-12-01T03:35:37;95418.52;;;3.34;92.31
6096;BME280;25081;42.698;23.298;2022-12-01T03:37:48;95419.83;;;3.34;92.19
6096;BME280;25081;42.698;23.298;2022-12-01T03:39:59;95411.78;;;3.32;92.66
6096;BME280;25081;42.698;23.298;2022-12-01T03:42:11;95421.34;;;3.25;92.60
6096;BME280;25081;42.698;23.298;2022-12-01T03:44:22;95414.97;;;3.11;93.46
6096;BME280;25081;42.698;23.298;2022-12-01T03:46:34;95410.35;;;3.13;93.79
6096;BME280;25081;42.698;23.298;2022-12-01T03:48:43;95417.41;;;3.16;93.62
6096;BME280;25081;42.698;23.298;2022-12-01T03:50:55;95406.88;;;3.21;93.22
6096;BME280;25081;42.698;23.298;2022-12-01T03:53:06;95407.55;;;3.14;93.24
6096;BME280;25081;42.698;23.298;2022-12-01T03:55:18;95415.92;;;3.22;93.39
6096;BME280;25081;42.698;23.298;2022-12-01T03:57:28;95412.48;;;3.13;93.02
6096;BME280;25081;42.698;23.298;2022-12-01T03:59:39;95417.76;;;3.13;92.89
6096;BME280;25081;42.698;23.298;2022-12-01T04:01:49;95418.73;;;3.16;93.06
6096;BME280;25081;42.698;23.298;2022-12-01T04:04:05;95414.95;;;3.19;92.86
6096;BME280;25081;42.698;23.298;2022-12-01T04:06:15;95418.58;;;3.14;93.11
6096;BME280;25081;42.698;23.298;2022-12-01T04:08:26;95417.76;;;3.13;93.21
6096;BME280;25081;42.698;23.298;2022-12-01T04:10:36;95419.72;;;3.15;93.22
6096;BME280;25081;42.698;23.298;2022-12-01T04:12:47;95426.80;;;3.15;93.50
6096;BME280;25081;42.698;23.298;2022-12-01T04:14:58;95426.30;;;3.15;93.86
6096;BME280;25081;42.698;23.298;2022-12-01T04:17:08;95425.81;;;3.16;94.08
6096;BME280;25081;42.698;23.298;2022-12-01T04:19:19;95423.82;;;3.18;94.37
6096;BME280;25081;42.698;23.298;2022-12-01T04:21:30;95420.89;;;3.13;94.15
6096;BME280;25081;42.698;23.298;2022-12-01T04:23:40;95427.81;;;3.10;94.41
6096;BME280;25081;42.698;23.298;2022-12-01T04:26:10;95433.89;;;3.06;94.72
6096;BME280;25081;42.698;23.298;2022-12-01T04:28:21;95434.23;;;3.03;95.19
6096;BME280;25081;42.698;23.298;2022-12-01T04:30:32;95439.20;;;2.86;95.75
6096;BME280;25081;42.698;23.298;2022-12-01T04:32:42;95440.36;;;2.75;96.41
6096;BME280;25081;42.698;23.298;2022-12-01T04:34:53;95442.00;;;2.84;97.22
6096;BME280;25081;42.698;23.298;2022-12-01T04:37:04;95447.61;;;2.81;97.10
6096;BME280;25081;42.698;23.298;2022-12-01T04:39:14;95448.75;;;2.75;96.94
6096;BME280;25081;42.698;23.298;2022-12-01T04:41:24;95445.13;;;2.68;97.19
6096;BME280;25081;42.698;23.298;2022-12-01T04:43:35;95450.39;;;2.59;97.72
6096;BME280;25081;42.698;23.298;2022-12-01T04:45:45;95451.88;;;2.58;97.90
6096;BME280;25081;42.698;23.298;2022-12-01T04:47:56;95451.56;;;2.53;98.24
6096;BME280;25081;42.698;23.298;2022-12-01T04:50:08;95446.94;;;2.59;98.61
6096;BME280;25081;42.698;23.298;2022-12-01T04:52:18;95443.66;;;2.57;98.37
6096;BME280;25081;42.698;23.298;2022-12-01T04:54:29;95450.08;;;2.63;98.43
6096;BME280;25081;42.698;23.298;2022-12-01T04:56:40;95445.97;;;2.64;98.08
6096;BME280;25081;42.698;23.298;2022-12-01T04:58:50;95451.73;;;2.64;97.77
6096;BME280;25081;42.698;23.298;2022-12-01T05:01:02;95453.70;;;2.62;97.88
6096;BME280;25081;42.698;23.298;2022-12-01T05:03:12;95451.73;;;2.64;98.33
6096;BME280;25081;42.698;23.298;2022-12-01T05:05:23;95448.10;;;2.65;98.40
6096;BME280;25081;42.698;23.298;2022-12-01T05:07:33;95450.25;;;2.61;98.34
6096;BME280;25081;42.698;23.298;2022-12-01T05:09:44;95447.28;;;2.56;98.45
6096;BME280;25081;42.698;23.298;2022-12-01T05:11:54;95450.08;;;2.63;98.31
6096;BME280;25081;42.698;23.298;2022-12-01T05:14:05;95448.59;;;2.56;98.00
6096;BME280;25081;42.698;23.298;2022-12-01T05:16:16;95447.45;;;2.54;98.00
6096;BME280;25081;42.698;23.298;2022-12-01T05:18:26;95451.04;;;2.41;98.56
6096;BME280;25081;42.698;23.298;2022-12-01T05:20:37;95454.67;;;2.36;99.48
6096;BME280;25081;42.698;23.298;2022-12-01T05:23:05;95456.47;;;2.40;99.76
6096;BME280;25081;42.698;23.298;2022-12-01T05:25:16;95455.16;;;2.36;100.00
6096;BME280;25081;42.698;23.298;2022-12-01T05:27:26;95457.47;;;2.47;100.00
6096;BME280;25081;42.698;23.298;2022-12-01T05:29:37;95454.50;;;2.38;100.00
6096;BME280;25081;42.698;23.298;2022-12-01T05:31:47;95456.00;;;2.44;100.00
6096;BME280;25081;42.698;23.298;2022-12-01T05:33:58;95454.02;;;2.54;100.00
6096;BME280;25081;42.698;23.298;2022-12-01T05:36:09;95454.18;;;2.57;100.00
6096;BME280;25081;42.698;23.298;2022-12-01T05:38:20;95457.48;;;2.63;100.00
6096;BME280;25081;42.698;23.298;2022-12-01T05:40:31;95457.14;;;2.66;100.00
6096;BME280;25081;42.698;23.298;2022-12-01T05:42:41;95458.12;;;2.49;100.00
6096;BME280;25081;42.698;23.298;2022-12-01T05:44:52;95455.19;;;2.52;100.00
6096;BME280;25081;42.698;23.298;2022-12-01T05:47:02;95458.77;;;2.51;98.52
6096;BME280;25081;42.698;23.298;2022-12-01T05:49:13;95459.95;;;2.52;95.89
6096;BME280;25081;42.698;23.298;2022-12-01T05:51:23;95462.24;;;2.55;94.59
6096;BME280;25081;42.698;23.298;2022-12-01T05:53:34;95461.76;;;2.52;92.31
6096;BME280;25081;42.698;23.298;2022-12-01T05:55:44;95459.63;;;2.51;90.25
6096;BME280;25081;42.698;23.298;2022-12-01T05:57:55;95460.58;;;2.50;88.37
6096;BME280;25081;42.698;23.298;2022-12-01T06:00:07;95464.70;;;2.45;86.82
6096;BME280;25081;42.698;23.298;2022-12-01T06:02:18;95463.89;;;2.44;86.88
6096;BME280;25081;42.698;23.298;2022-12-01T06:04:28;95460.77;;;2.45;86.24
6096;BME280;25081;42.698;23.298;2022-12-01T06:06:39;95467.66;;;2.46;85.59
6096;BME280;25081;42.698;23.298;2022-12-01T06:08:49;95464.19;;;2.41;84.78
6096;BME280;25081;42.698;23.298;2022-12-01T06:11:00;95463.72;;;2.34;84.87
6096;BME280;25081;42.698;23.298;2022-12-01T06:13:10;95456.95;;;2.31;84.93
6096;BME280;25081;42.698;23.298;2022-12-01T06:15:20;95461.23;;;2.40;85.00
6096;BME280;25081;42.698;23.298;2022-12-01T06:17:31;95461.25;;;2.44;84.73
6096;BME280;25081;42.698;23.298;2022-12-01T06:19:41;95464.36;;;2.40;84.53
6096;BME280;25081;42.698;23.298;2022-12-01T06:21:52;95461.41;;;2.47;84.68
6096;BME280;25081;42.698;23.298;2022-12-01T06:24:04;95463.89;;;2.44;84.62
6096;BME280;25081;42.698;23.298;2022-12-01T06:26:14;95463.05;;;2.48;84.70
6096;BME280;25081;42.698;23.298;2022-12-01T06:28:25;95454.34;;;2.47;84.93
6096;BME280;25081;42.698;23.298;2022-12-01T06:30:35;95459.63;;;2.51;85.46
6096;BME280;25081;42.698;23.298;2022-12-01T06:32:46;95457.81;;;2.52;85.47
6096;BME280;25081;42.698;23.298;2022-12-01T06:34:56;95463.06;;;2.56;85.52
6096;BME280;25081;42.698;23.298;2022-12-01T06:37:07;95458.64;;;2.81;86.95
6096;BME280;25081;42.698;23.298;2022-12-01T06:39:17;95451.58;;;3.45;90.95
6096;BME280;25081;42.698;23.298;2022-12-01T06:41:28;95454.95;;;3.66;83.58
6096;BME280;25081;42.698;23.298;2022-12-01T06:43:39;95455.42;;;3.30;82.21
6096;BME280;25081;42.698;23.298;2022-12-01T06:45:49;95456.95;;;3.04;83.28
6096;BME280;25081;42.698;23.298;2022-12-01T06:48:00;95458.45;;;2.95;84.03
6096;BME280;25081;42.698;23.298;2022-12-01T06:50:12;95464.05;;;2.92;85.09
6096;BME280;25081;42.698;23.298;2022-12-01T06:52:25;95462.91;;;2.82;85.23
6096;BME280;25081;42.698;23.298;2022-12-01T06:54:36;95452.22;;;2.71;85.76
6096;BME280;25081;42.698;23.298;2022-12-01T06:56:46;95458.95;;;2.74;85.69
6096;BME280;25081;42.698;23.298;2022-12-01T06:58:57;95457.64;;;2.74;86.08
6096;BME280;25081;42.698;23.298;2022-12-01T07:01:11;95457.64;;;2.74;86.25
6096;BME280;25081;42.698;23.298;2022-12-01T07:03:21;95454.34;;;2.68;86.33
6096;BME280;25081;42.698;23.298;2022-12-01T07:05:32;95455.66;;;2.59;86.58
6096;BME280;25081;42.698;23.298;2022-12-01T07:07:42;95463.57;;;2.51;87.31
6096;BME280;25081;42.698;23.298;2022-12-01T07:09:53;95456.16;;;2.47;88.24
6096;BME280;25081;42.698;23.298;2022-12-01T07:12:04;95460.58;;;2.50;88.61
6096;BME280;25081;42.698;23.298;2022-12-01T07:14:18;95462.56;;;2.48;88.82
6096;BME280;25081;42.698;23.298;2022-12-01T07:16:28;95459.12;;;2.44;88.89
6096;BME280;25081;42.698;23.298;2022-12-01T07:18:38;95467.67;;;2.42;89.23
6096;BME280;25081;42.698;23.298;2022-12-01T07:20:49;95467.34;;;2.45;89.90
6096;BME280;25081;42.698;23.298;2022-12-01T07:23:00;95468.48;;;2.46;89.82
6096;BME280;25081;42.698;23.298;2022-12-01T07:25:10;95470.62;;;2.47;90.16
6096;BME280;25081;42.698;23.298;2022-12-01T07:27:21;95471.43;;;2.39;90.45
6096;BME280;25081;42.698;23.298;2022-12-01T07:29:32;95471.59;;;2.38;90.74
6096;BME280;25081;42.698;23.298;2022-12-01T07:31:42;95469.14;;;2.48;90.68
6096;BME280;25081;42.698;23.298;2022-12-01T07:33:53;95466.53;;;2.52;90.39
6096;BME280;25081;42.698;23.298;2022-12-01T07:36:04;95469.15;;;2.44;90.43
6096;BME280;25081;42.698;23.298;2022-12-01T07:38:15;95468.33;;;2.44;90.62
6096;BME280;25081;42.698;23.298;2022-12-01T07:40:25;95471.11;;;2.34;91.17
6096;BME280;25081;42.698;23.298;2022-12-01T07:42:36;95468.81;;;2.35;91.20
6096;BME280;25081;42.698;23.298;2022-12-01T07:44:47;95471.75;;;2.28;91.49
6096;BME280;25081;42.698;23.298;2022-12-01T07:46:57;95469.94;;;2.28;92.49
6096;BME280;25081;42.698;23.298;2022-12-01T07:49:08;95471.75;;;2.24;92.71
6096;BME280;25081;42.698;23.298;2022-12-01T07:51:19;95466.98;;;2.27;93.37
6096;BME280;25081;42.698;23.298;2022-12-01T07:53:30;95464.36;;;2.40;93.71
6096;BME280;25081;42.698;23.298;2022-12-01T07:55:40;95468.14;;;2.41;93.91
6096;BME280;25081;42.698;23.298;2022-12-01T07:57:50;95463.88;;;2.48;93.91
6096;BME280;25081;42.698;23.298;2022-12-01T08:00:01;95467.51;;;2.43;94.26
6096;BME280;25081;42.698;23.298;2022-12-01T08:02:13;95471.79;;;2.52;94.44
6096;BME280;25081;42.698;23.298;2022-12-01T08:04:25;95470.31;;;2.54;94.45
6096;BME280;25081;42.698;23.298;2022-12-01T08:06:35;95474.58;;;2.55;94.87
6096;BME280;25081;42.698;23.298;2022-12-01T08:08:46;95470.12;;;2.59;95.20
6096;BME280;25081;42.698;23.298;2022-12-01T08:10:57;95468.16;;;2.66;95.40
6096;BME280;25081;42.698;23.298;2022-12-01T08:13:07;95471.13;;;2.67;95.78
6096;BME280;25081;42.698;23.298;2022-12-01T08:15:18;95465.87;;;2.71;95.79
6096;BME280;25081;42.698;23.298;2022-12-01T08:17:29;95472.46;;;2.71;95.64
6096;BME280;25081;42.698;23.298;2022-12-01T08:19:39;95475.24;;;2.65;95.70
6096;BME280;25081;42.698;23.298;2022-12-01T08:21:50;95474.27;;;2.70;96.17
6096;BME280;25081;42.698;23.298;2022-12-01T08:24:00;95474.10;;;2.72;95.69
6096;BME280;25081;42.698;23.298;2022-12-01T08:26:13;95477.70;;;2.79;95.80
6096;BME280;25081;42.698;23.298;2022-12-01T08:28:22;95472.27;;;2.56;96.03
6096;BME280;25081;42.698;23.298;2022-12-01T08:30:33;95470.30;;;2.78;97.14
6096;BME280;25081;42.698;23.298;2022-12-01T08:32:44;95484.13;;;3.09;97.52
6096;BME280;25081;42.698;23.298;2022-12-01T08:34:54;95475.51;;;3.31;94.96
6096;BME280;25081;42.698;23.298;2022-12-01T08:37:05;95483.77;;;3.08;94.19
6096;BME280;25081;42.698;23.298;2022-12-01T08:39:15;95483.47;;;2.91;95.17
6096;BME280;25081;42.698;23.298;2022-12-01T08:41:26;95478.69;;;2.78;97.16
6096;BME280;25081;42.698;23.298;2022-12-01T08:43:37;95490.53;;;3.10;95.83
6096;BME280;25081;42.698;23.298;2022-12-01T08:45:47;95477.67;;;3.15;94.93
6096;BME280;25081;42.698;23.298;2022-12-01T08:47:58;95476.70;;;2.96;95.00
6096;BME280;25081;42.698;23.298;2022-12-01T08:50:10;95476.70;;;2.88;96.88
6096;BME280;25081;42.698;23.298;2022-12-01T08:52:20;95474.53;;;3.24;97.02
6096;BME280;25081;42.698;23.298;2022-12-01T08:54:31;95466.45;;;3.38;95.71
6096;BME280;25081;42.698;23.298;2022-12-01T08:56:42;95468.97;;;3.03;94.18
6096;BME280;25081;42.698;23.298;2022-12-01T08:58:52;95473.08;;;3.05;94.65
6096;BME280;25081;42.698;23.298;2022-12-01T09:01:04;95472.10;;;2.70;95.69
6096;BME280;25081;42.698;23.298;2022-12-01T09:03:14;95470.96;;;2.93;96.87
6096;BME280;25081;42.698;23.298;2022-12-01T09:05:24;95465.83;;;3.07;94.88
6096;BME280;25081;42.698;23.298;2022-12-01T09:07:35;95463.87;;;2.89;94.90
6096;BME280;25081;42.698;23.298;2022-12-01T09:09:46;95466.52;;;2.85;95.79
6096;BME280;25081;42.698;23.298;2022-12-01T09:11:56;95460.70;;;3.22;96.21
6096;BME280;25081;42.698;23.298;2022-12-01T09:14:07;95457.23;;;3.26;94.07
6096;BME280;25081;42.698;23.298;2022-12-01T09:16:18;95458.06;;;3.30;94.57
6096;BME280;25081;42.698;23.298;2022-12-01T09:18:28;95453.16;;;3.19;93.34
6096;BME280;25081;42.698;23.298;2022-12-01T09:20:39;95465.50;;;3.06;95.11
6096;BME280;25081;42.698;23.298;2022-12-01T09:22:49;95455.61;;;3.08;93.81
6096;BME280;25081;42.698;23.298;2022-12-01T09:24:59;95456.23;;;3.39;93.77
6096;BME280;25081;42.698;23.298;2022-12-01T09:27:10;95450.03;;;3.11;92.44
6096;BME280;25081;42.698;23.298;2022-12-01T09:29:20;95447.17;;;3.33;93.12
6096;BME280;25081;42.698;23.298;2022-12-01T09:31:31;95452.41;;;3.89;92.35
6096;BME280;25081;42.698;23.298;2022-12-01T09:33:41;95443.42;;;4.06;90.67
6096;BME280;25081;42.698;23.298;2022-12-01T09:35:56;95439.69;;;3.92;89.72
6096;BME280;25081;42.698;23.298;2022-12-01T09:38:03;95436.91;;;3.86;90.93
6096;BME280;25081;42.698;23.298;2022-12-01T09:40:15;95437.83;;;4.01;92.44
6096;BME280;25081;42.698;23.298;2022-12-01T09:42:26;95431.69;;;4.09;92.37
6096;BME280;25081;42.698;23.298;2022-12-01T09:44:38;95432.66;;;4.12;91.45
6096;BME280;25081;42.698;23.298;2022-12-01T09:46:50;95436.20;;;4.27;91.02
6096;BME280;25081;42.698;23.298;2022-12-01T09:49:00;95425.41;;;4.37;90.38
6096;BME280;25081;42.698;23.298;2022-12-01T09:51:13;95427.23;;;4.32;88.94
6096;BME280;25081;42.698;23.298;2022-12-01T09:53:24;95426.17;;;4.45;89.02
6096;BME280;25081;42.698;23.298;2022-12-01T09:55:35;95422.48;;;4.54;87.21
6096;BME280;25081;42.698;23.298;2022-12-01T09:57:46;95421.43;;;4.59;87.40
6096;BME280;25081;42.698;23.298;2022-12-01T09:59:57;95424.59;;;4.36;86.01
6096;BME280;25081;42.698;23.298;2022-12-01T10:02:16;95416.50;;;4.34;86.03
6096;BME280;25081;42.698;23.298;2022-12-01T10:04:25;95418.64;;;4.11;86.19
6096;BME280;25081;42.698;23.298;2022-12-01T10:06:36;95416.31;;;3.85;87.95
6096;BME280;25081;42.698;23.298;2022-12-01T10:08:49;95417.55;;;3.70;88.44
6096;BME280;25081;42.698;23.298;2022-12-01T10:11:03;95412.35;;;3.89;89.22
6096;BME280;25081;42.698;23.298;2022-12-01T10:13:15;95407.91;;;4.17;86.78
6096;BME280;25081;42.698;23.298;2022-12-01T10:15:29;95413.32;;;4.19;82.29
6096;BME280;25081;42.698;23.298;2022-12-01T10:17:40;95415.09;;;3.65;82.26
6096;BME280;25081;42.698;23.298;2022-12-01T10:19:53;95413.81;;;3.61;82.50
6096;BME280;25081;42.698;23.298;2022-12-01T10:22:18;95410.53;;;3.55;82.48
6096;BME280;25081;42.698;23.298;2022-12-01T10:24:35;95405.17;;;3.40;81.80
6096;BME280;25081;42.698;23.298;2022-12-01T10:26:47;95419.48;;;3.37;81.81
6096;BME280;25081;42.698;23.298;2022-12-01T10:29:08;95415.26;;;3.28;80.62
6096;BME280;25081;42.698;23.298;2022-12-01T10:31:30;95407.45;;;4.05;84.02
6096;BME280;25081;42.698;23.298;2022-12-01T10:33:31;95403.39;;;4.67;77.29
6096;BME280;25081;42.698;23.298;2022-12-01T10:35:40;95401.45;;;5.28;73.25
6096;BME280;25081;42.698;23.298;2022-12-01T10:37:52;95397.34;;;6.21;72.36
6096;BME280;25081;42.698;23.298;2022-12-01T10:40:02;95393.50;;;6.34;70.77
6096;BME280;25081;42.698;23.298;2022-12-01T10:42:13;95403.45;;;6.11;69.60
6096;BME280;25081;42.698;23.298;2022-12-01T10:44:23;95400.72;;;5.64;69.98
6096;BME280;25081;42.698;23.298;2022-12-01T10:46:36;95400.67;;;4.56;72.88
6096;BME280;25081;42.698;23.298;2022-12-01T10:48:53;95404.30;;;3.83;76.68
6096;BME280;25081;42.698;23.298;2022-12-01T10:51:15;95405.58;;;3.56;77.55
6096;BME280;25081;42.698;23.298;2022-12-01T10:53:28;95401.86;;;3.42;78.64
6096;BME280;25081;42.698;23.298;2022-12-01T10:55:38;95403.83;;;3.48;79.05
6096;BME280;25081;42.698;23.298;2022-12-01T11:00:20;95404.20;;;3.33;78.44
6096;BME280;25081;42.698;23.298;2022-12-01T11:02:22;95404.22;;;3.25;78.78
6096;BME280;25081;42.698;23.298;2022-12-01T11:04:38;95405.23;;;3.20;78.87
6096;BME280;25081;42.698;23.298;2022-12-01T11:06:54;95403.13;;;3.11;79.02
6096;BME280;25081;42.698;23.298;2022-12-01T11:09:05;95402.80;;;3.10;78.98
6096;BME280;25081;42.698;23.298;2022-12-01T11:11:29;95392.27;;;3.10;79.47
6096;BME280;25081;42.698;23.298;2022-12-01T11:13:38;95396.36;;;3.08;79.48
6096;BME280;25081;42.698;23.298;2022-12-01T11:15:51;95394.59;;;3.01;78.79
6096;BME280;25081;42.698;23.298;2022-12-01T11:18:01;95394.91;;;3.02;78.98
6096;BME280;25081;42.698;23.298;2022-12-01T11:22:56;95387.52;;;2.93;78.88
6096;BME280;25081;42.698;23.298;2022-12-01T11:25:12;95394.11;;;2.93;80.15
6096;BME280;25081;42.698;23.298;2022-12-01T11:27:19;95398.78;;;3.30;85.47
6096;BME280;25081;42.698;23.298;2022-12-01T11:29:33;95383.22;;;4.70;75.89
6096;BME280;25081;42.698;23.298;2022-12-01T11:31:44;95386.70;;;3.75;76.40
6096;BME280;25081;42.698;23.298;2022-12-01T11:33:54;95395.97;;;3.32;78.21
6096;BME280;25081;42.698;23.298;2022-12-01T11:36:08;95395.05;;;3.12;79.35
6096;BME280;25081;42.698;23.298;2022-12-01T11:38:20;95394.59;;;3.01;79.80
6096;BME280;25081;42.698;23.298;2022-12-01T11:40:31;95394.41;;;2.98;79.92
6096;BME280;25081;42.698;23.298;2022-12-01T11:42:42;95394.11;;;2.93;80.38
6096;BME280;25081;42.698;23.298;2022-12-01T11:44:53;95395.59;;;2.87;80.26
6096;BME280;25081;42.698;23.298;2022-12-01T11:47:13;95393.63;;;2.90;80.33
6096;BME280;25081;42.698;23.298;2022-12-01T11:49:24;95391.18;;;2.80;80.09
6096;BME280;25081;42.698;23.298;2022-12-01T11:51:34;95390.67;;;2.76;80.85
6096;BME280;25081;42.698;23.298;2022-12-01T11:53:45;95394.13;;;2.69;81.13
6096;BME280;25081;42.698;23.298;2022-12-01T11:58:40;95384.42;;;2.69;81.17